Time;durP1;ratioP1;P1;durP2;ratioP2;P2;SDS_P1;SDS_P2;PMS_P1;PMS_P2;Temp;Humidity;BMP_temperature;BMP_pressure;BME280_temperature;BME280_humidity;BME280_pressure;Samples;Min_cycle;Max_cycle;Signal;HPM_P1;HPM_P2
2022/09/19 00:02:08;;;;;;;;;;;;;;;8.82;100.00;100240.00;5062942;28;19943;-82
2022/09/19 00:04:36;;;;;;;;;;;;;;;8.78;100.00;100239.78;5045362;28;19928;-80
2022/09/19 00:07:08;;;;;;;;;;;;;;;8.68;100.00;100245.22;5073679;28;19929;-82
2022/09/19 00:09:37;;;;;;;;;;;;;;;8.64;100.00;100247.66;5071896;28;19920;-80
2022/09/19 00:12:10;;;;;;;;;;;;;;;8.60;100.00;100251.22;5049966;28;19932;-81
2022/09/19 00:14:43;;;;;;;;;;;;;;;8.59;100.00;100247.72;5041850;28;19925;-82
2022/09/19 00:17:16;;;;;;;;;;;;;;;8.56;100.00;100251.00;5084563;28;20277;-83
2022/09/19 00:19:44;;;;;;;;;;;;;;;8.53;100.00;100259.66;5043122;28;19944;-81
2022/09/19 00:22:16;;;;;;;;;;;;;;;8.47;100.00;100260.78;5070763;28;19924;-81
2022/09/19 00:24:50;;;;;;;;;;;;;;;8.42;100.00;100256.13;5068653;28;19924;-82
2022/09/19 00:27:19;;;;;;;;;;;;;;;8.38;100.00;100265.91;5058237;28;19924;-82
2022/09/19 00:29:52;;;;;;;;;;;;;;;8.32;100.00;100275.16;5080929;28;19921;-82
2022/09/19 00:32:26;;;;;;;;;;;;;;;8.29;100.00;100271.09;5052760;28;19920;-82
2022/09/19 00:34:59;;;;;;;;;;;;;;;8.28;100.00;100271.34;5066202;28;20349;-81
2022/09/19 00:37:26;;;;;;;;;;;;;;;8.24;100.00;100276.50;5051134;28;19921;-83
2022/09/19 00:40:01;;;;;;;;;;;;;;;8.18;100.00;100275.69;5052417;28;19924;-81
2022/09/19 00:42:29;;;;;;;;;;;;;;;8.21;100.00;100276.25;5057133;28;19935;-81
2022/09/19 00:45:03;;;;;;;;;;;;;;;8.18;100.00;100280.31;5038167;28;20317;-81
2022/09/19 00:47:38;;;;;;;;;;;;;;;8.20;100.00;100277.34;5079905;28;20364;-81
2022/09/19 00:50:11;;;;;;;;;;;;;;;8.12;100.00;100279.53;5050788;28;19927;-82
2022/09/19 00:52:47;;;;;;;;;;;;;;;8.12;100.00;100284.13;5069717;28;20377;-82
2022/09/19 00:55:17;;;;;;;;;;;;;;;8.07;100.00;100284.94;5064451;28;19925;-81
2022/09/19 00:58:00;;;;;;;;;;;;;;;8.07;100.00;100295.78;5034724;28;19936;-82
2022/09/19 01:00:28;;;;;;;;;;;;;;;8.02;100.00;100287.66;5064604;28;20008;-82
2022/09/19 01:02:56;;;;;;;;;;;;;;;8.04;100.00;100290.09;5073603;28;19928;-81
2022/09/19 01:05:33;;;;;;;;;;;;;;;7.99;100.00;100291.72;5062085;28;19935;-81
2022/09/19 01:08:23;;;;;;;;;;;;;;;7.97;100.00;100299.31;5063249;28;19921;-80
2022/09/19 01:11:06;;;;;;;;;;;;;;;7.98;100.00;100300.13;5059075;28;19953;-80
2022/09/19 01:13:38;;;;;;;;;;;;;;;7.91;100.00;100307.72;5056235;28;19932;-80
2022/09/19 01:16:18;;;;;;;;;;;;;;;7.89;100.00;100305.28;5083247;28;20381;-81
2022/09/19 01:18:47;;;;;;;;;;;;;;;7.88;100.00;100313.69;5081313;28;19925;-81
2022/09/19 01:21:39;;;;;;;;;;;;;;;7.82;100.00;100316.38;5050709;28;20288;-83
2022/09/19 01:24:26;;;;;;;;;;;;;;;7.82;100.00;100318.28;5034944;28;19929;-81
2022/09/19 01:27:09;;;;;;;;;;;;;;;7.76;100.00;100327.47;5047162;28;19932;-82
2022/09/19 01:29:46;;;;;;;;;;;;;;;7.78;100.00;100333.44;5039530;28;19921;-82
2022/09/19 01:32:18;;;;;;;;;;;;;;;7.77;100.00;100343.47;5058302;28;19931;-84
2022/09/19 01:34:54;;;;;;;;;;;;;;;7.75;100.00;100339.41;5057970;28;19924;-82
2022/09/19 01:37:30;;;;;;;;;;;;;;;7.71;100.00;100339.13;5079594;28;19928;-82
2022/09/19 01:40:00;;;;;;;;;;;;;;;7.72;100.00;100340.75;5070467;28;19920;-81
2022/09/19 01:42:28;;;;;;;;;;;;;;;7.72;100.00;100342.63;5054786;28;19928;-83
2022/09/19 01:45:03;;;;;;;;;;;;;;;7.71;100.00;100343.75;5056673;28;20408;-81
2022/09/19 01:47:41;;;;;;;;;;;;;;;7.70;100.00;100350.22;5040291;28;19924;-82
2022/09/19 01:50:19;;;;;;;;;;;;;;;7.69;100.00;100356.72;5060757;28;19931;-81
2022/09/19 01:53:01;;;;;;;;;;;;;;;7.61;100.00;100366.19;5045318;28;19932;-80
2022/09/19 01:55:52;;;;;;;;;;;;;;;7.63;100.00;100364.84;5059480;28;19925;-81
2022/09/19 01:58:33;;;;;;;;;;;;;;;7.62;100.00;100354.28;5076642;28;19932;-82
2022/09/19 02:01:05;;;;;;;;;;;;;;;7.56;100.00;100360.78;5063151;28;20336;-81
2022/09/19 02:03:46;;;;;;;;;;;;;;;7.58;100.00;100364.84;5064295;28;19924;-81
2022/09/19 02:06:23;;;;;;;;;;;;;;;7.54;100.00;100371.03;5052513;28;19921;-80
2022/09/19 02:08:59;;;;;;;;;;;;;;;7.55;100.00;100370.78;5070059;28;19924;-81
2022/09/19 02:11:42;;;;;;;;;;;;;;;7.57;100.00;100382.16;5051432;28;19924;-82
2022/09/19 02:14:18;;;;;;;;;;;;;;;7.53;100.00;100378.38;5043792;28;20282;-81
2022/09/19 02:17:03;;;;;;;;;;;;;;;7.56;100.00;100379.72;5049357;28;19921;-80
2022/09/19 02:19:34;;;;;;;;;;;;;;;7.55;100.00;100381.59;5052173;28;19924;-81
2022/09/19 02:22:10;;;;;;;;;;;;;;;7.52;100.00;100384.03;5053316;28;19928;-81
2022/09/19 02:24:45;;;;;;;;;;;;;;;7.51;100.00;100391.34;5054800;28;19927;-81
2022/09/19 02:27:21;;;;;;;;;;;;;;;7.45;100.00;100397.84;5078428;28;20423;-81
2022/09/19 02:29:58;;;;;;;;;;;;;;;7.45;100.00;100390.50;5057085;28;19927;-83
2022/09/19 02:32:35;;;;;;;;;;;;;;;7.41;100.00;100397.53;5067938;28;20288;-83
2022/09/19 02:35:04;;;;;;;;;;;;;;;7.43;100.00;100389.97;5047399;28;19921;-80
2022/09/19 02:37:44;;;;;;;;;;;;;;;7.44;100.00;100401.63;5057364;28;19920;-81
2022/09/19 02:40:21;;;;;;;;;;;;;;;7.41;100.00;100404.84;5073673;28;19950;-81
2022/09/19 02:42:57;;;;;;;;;;;;;;;7.41;100.00;100400.25;5057256;28;19924;-83
2022/09/19 02:45:35;;;;;;;;;;;;;;;7.40;100.00;100404.06;5051723;28;19932;-82
2022/09/19 02:48:13;;;;;;;;;;;;;;;7.46;100.00;100405.69;5044469;28;19932;-81
2022/09/19 02:50:52;;;;;;;;;;;;;;;7.41;100.00;100405.66;5076547;28;19924;-82
2022/09/19 02:53:29;;;;;;;;;;;;;;;7.41;100.00;100418.41;5089552;28;20297;-80
2022/09/19 02:55:59;;;;;;;;;;;;;;;7.41;100.00;100416.50;5062089;28;19920;-81
2022/09/19 02:58:35;;;;;;;;;;;;;;;7.40;100.00;100419.47;5082706;28;19924;-81
2022/09/19 03:01:10;;;;;;;;;;;;;;;7.34;100.00;100418.63;5063251;28;20280;-81
2022/09/19 03:06:39;;;;;;;;;;;;;;;7.34;100.00;100424.06;5051642;28;19921;-81
2022/09/19 03:09:15;;;;;;;;;;;;;;;7.34;100.00;100428.66;5049989;28;19925;-81
2022/09/19 03:11:51;;;;;;;;;;;;;;;7.32;100.00;100429.72;5079979;28;20369;-82
2022/09/19 03:14:19;;;;;;;;;;;;;;;7.31;100.00;100433.50;5083085;28;19924;-81
2022/09/19 03:16:56;;;;;;;;;;;;;;;7.29;100.00;100432.13;5061099;28;19920;-82
2022/09/19 03:19:32;;;;;;;;;;;;;;;7.26;100.00;100438.09;5077229;28;19931;-80
2022/09/19 03:22:00;;;;;;;;;;;;;;;7.29;100.00;100437.56;5061945;28;19920;-82
2022/09/19 03:24:37;;;;;;;;;;;;;;;7.24;100.00;100441.06;5055078;28;19931;-83
2022/09/19 03:27:05;;;;;;;;;;;;;;;7.25;100.00;100442.69;5075727;28;19925;-83
2022/09/19 03:29:34;;;;;;;;;;;;;;;7.31;100.00;100441.63;5052579;28;19925;-82
2022/09/19 03:32:07;;;;;;;;;;;;;;;7.37;100.00;100449.78;5061259;28;19931;-82
2022/09/19 03:34:41;;;;;;;;;;;;;;;7.40;100.00;100451.97;5054579;28;20262;-81
2022/09/19 03:37:11;;;;;;;;;;;;;;;7.45;100.00;100449.28;5089544;28;20000;-80
2022/09/19 03:39:45;;;;;;;;;;;;;;;7.46;100.00;100453.63;5056600;28;19947;-82
2022/09/19 03:42:19;;;;;;;;;;;;;;;7.44;100.00;100461.19;5068522;28;19955;-82
2022/09/19 03:44:52;;;;;;;;;;;;;;;7.35;100.00;100455.47;5079428;28;19924;-82
2022/09/19 03:47:25;;;;;;;;;;;;;;;7.34;100.00;100456.53;5053940;28;19924;-83
2022/09/19 03:49:59;;;;;;;;;;;;;;;7.32;100.00;100459.50;5059032;28;20231;-84
2022/09/19 03:52:36;;;;;;;;;;;;;;;7.34;100.00;100467.38;5052869;28;20408;-82
2022/09/19 03:55:04;;;;;;;;;;;;;;;7.32;100.00;100462.22;5060580;28;19924;-82
2022/09/19 03:57:40;;;;;;;;;;;;;;;7.28;100.00;100471.13;5050383;28;19925;-82
2022/09/19 04:00:09;;;;;;;;;;;;;;;7.23;100.00;100471.91;5058125;28;20404;-82
2022/09/19 04:02:44;;;;;;;;;;;;;;;7.20;100.00;100464.31;5040636;28;19924;-81
2022/09/19 04:05:18;;;;;;;;;;;;;;;7.22;100.00;100472.16;5084262;28;19920;-82
2022/09/19 04:07:52;;;;;;;;;;;;;;;7.20;100.00;100469.72;5059325;28;19924;-81
2022/09/19 04:10:26;;;;;;;;;;;;;;;7.23;100.00;100473.81;5065825;28;19924;-83
2022/09/19 04:12:59;;;;;;;;;;;;;;;7.17;100.00;100482.97;5042876;28;19927;-81
2022/09/19 04:15:27;;;;;;;;;;;;;;;7.12;100.00;100484.56;5079856;28;19924;-81
2022/09/19 04:18:04;;;;;;;;;;;;;;;7.20;100.00;100482.47;5063716;28;19928;-82
2022/09/19 04:20:39;;;;;;;;;;;;;;;7.21;100.00;100484.91;5051310;28;19925;-82
2022/09/19 04:23:26;;;;;;;;;;;;;;;7.18;100.00;100496.25;5064534;28;20392;-81
2022/09/19 04:26:03;;;;;;;;;;;;;;;7.19;100.00;100495.16;5060255;28;19921;-82
2022/09/19 04:28:40;;;;;;;;;;;;;;;7.11;100.00;100495.66;5063229;28;19927;-82
2022/09/19 04:31:12;;;;;;;;;;;;;;;7.14;100.00;100498.66;5060654;28;19925;-81
2022/09/19 04:33:48;;;;;;;;;;;;;;;7.12;100.00;100497.28;5055496;28;19921;-81
2022/09/19 04:36:23;;;;;;;;;;;;;;;7.07;100.00;100502.66;5050701;28;19924;-80
2022/09/19 04:39:02;;;;;;;;;;;;;;;7.06;100.00;100507.25;5064084;28;20383;-81
2022/09/19 04:41:32;;;;;;;;;;;;;;;7.08;100.00;100509.72;5069630;28;19947;-82
2022/09/19 04:44:03;;;;;;;;;;;;;;;7.07;100.00;100510.78;5052127;28;19924;-83
2022/09/19 04:46:54;;;;;;;;;;;;;;;7.05;100.00;100508.34;5042052;28;19947;-80
2022/09/19 04:49:21;;;;;;;;;;;;;;;7.07;100.00;100514.31;5065254;28;19920;-81
2022/09/19 04:51:56;;;;;;;;;;;;;;;7.09;100.00;100514.06;5062775;28;19927;-82
2022/09/19 04:54:35;;;;;;;;;;;;;;;7.07;100.00;100521.59;5086501;28;19920;-82
2022/09/19 04:57:08;;;;;;;;;;;;;;;7.03;100.00;100524.03;5043581;28;19925;-83
2022/09/19 04:59:37;;;;;;;;;;;;;;;6.96;100.00;100526.13;5049751;28;19932;-81
2022/09/19 05:02:12;;;;;;;;;;;;;;;6.99;100.00;100533.75;5049437;28;19924;-83
2022/09/19 05:04:41;;;;;;;;;;;;;;;6.93;100.00;100538.31;5064555;28;19921;-83
2022/09/19 05:07:19;;;;;;;;;;;;;;;6.95;100.00;100533.44;5068028;28;20381;-82
2022/09/19 05:09:51;;;;;;;;;;;;;;;6.98;100.00;100541.03;5062837;28;20292;-82
2022/09/19 05:12:32;;;;;;;;;;;;;;;7.01;100.00;100533.47;5062768;28;19932;-81
2022/09/19 05:15:00;;;;;;;;;;;;;;;7.03;100.00;100540.25;5063400;28;20304;-82
2022/09/19 05:17:33;;;;;;;;;;;;;;;7.11;100.00;100539.78;5044091;28;19932;-83
2022/09/19 05:20:07;;;;;;;;;;;;;;;7.20;100.00;100528.47;5048316;28;20395;-80
2022/09/19 05:22:42;;;;;;;;;;;;;;;7.28;100.00;100539.63;5066834;28;19924;-82
2022/09/19 05:25:17;;;;;;;;;;;;;;;7.39;100.00;100540.50;5066938;28;19935;-82
2022/09/19 05:27:44;;;;;;;;;;;;;;;7.42;100.00;100548.09;5046293;28;19925;-81
2022/09/19 05:30:21;;;;;;;;;;;;;;;7.47;100.00;100544.59;5049660;28;19924;-81
2022/09/19 05:32:49;;;;;;;;;;;;;;;7.45;100.00;100547.56;5044627;28;20380;-80
2022/09/19 05:35:32;;;;;;;;;;;;;;;7.52;100.00;100552.75;5085417;28;19924;-81
2022/09/19 05:38:37;;;;;;;;;;;;;;;7.58;100.00;100557.13;5050753;28;19940;-80
2022/09/19 05:41:30;;;;;;;;;;;;;;;7.73;100.00;100548.22;5086580;28;19920;-82
2022/09/19 05:44:11;;;;;;;;;;;;;;;7.88;100.00;100552.09;5084758;28;19932;-83
2022/09/19 05:46:40;;;;;;;;;;;;;;;7.97;100.00;100554.03;5042792;28;20419;-81
2022/09/19 05:49:08;;;;;;;;;;;;;;;8.07;100.00;100564.09;5064914;28;20308;-81
2022/09/19 05:51:41;;;;;;;;;;;;;;;8.15;100.00;100568.19;5083886;28;20300;-81
2022/09/19 05:54:20;;;;;;;;;;;;;;;8.20;100.00;100565.47;5047682;28;19920;-82
2022/09/19 05:57:11;;;;;;;;;;;;;;;8.20;100.00;100568.19;5071788;28;19940;-81
2022/09/19 05:59:44;;;;;;;;;;;;;;;8.27;100.00;100571.50;5070688;28;19928;-81
2022/09/19 06:02:20;;;;;;;;;;;;;;;8.27;100.00;100570.66;5068157;28;20304;-81
2022/09/19 06:04:59;;;;;;;;;;;;;;;8.29;100.00;100576.66;5050014;28;19988;-81
2022/09/19 06:07:33;;;;;;;;;;;;;;;8.29;100.00;100582.88;5063959;28;19925;-81
2022/09/19 06:10:08;;;;;;;;;;;;;;;8.37;100.00;100586.97;5053850;28;20391;-81
2022/09/19 06:12:41;;;;;;;;;;;;;;;8.37;100.00;100589.69;5050852;28;19931;-82
2022/09/19 06:15:15;;;;;;;;;;;;;;;8.39;100.00;100589.41;5077817;28;19920;-81
2022/09/19 06:17:43;;;;;;;;;;;;;;;8.43;100.00;100594.03;5060706;28;19924;-82
2022/09/19 06:20:28;;;;;;;;;;;;;;;8.51;100.00;100592.72;5073194;28;19921;-81
2022/09/19 06:23:09;;;;;;;;;;;;;;;8.54;100.00;100589.47;5057181;28;19921;-81
2022/09/19 06:25:43;;;;;;;;;;;;;;;8.62;100.00;100588.94;5070380;28;19924;-81
2022/09/19 06:28:16;;;;;;;;;;;;;;;8.64;100.00;100588.66;5065321;28;19921;-82
2022/09/19 06:30:53;;;;;;;;;;;;;;;8.66;100.00;100594.66;5064654;28;20356;-82
2022/09/19 06:33:35;;;;;;;;;;;;;;;8.67;100.00;100594.38;5048052;28;19928;-81
2022/09/19 06:36:12;;;;;;;;;;;;;;;8.77;100.00;100601.72;5056923;28;20423;-81
2022/09/19 06:38:42;;;;;;;;;;;;;;;8.93;100.00;100601.72;5073472;28;19927;-81
2022/09/19 06:41:27;;;;;;;;;;;;;;;9.08;100.00;100612.59;5050555;28;19921;-83
2022/09/19 06:44:14;;;;;;;;;;;;;;;9.32;100.00;100606.59;5055751;28;19927;-80
2022/09/19 06:47:02;;;;;;;;;;;;;;;9.57;100.00;100607.66;5070907;28;19931;-85
2022/09/19 06:49:32;;;;;;;;;;;;;;;9.74;100.00;100608.16;5056807;28;20361;-79
2022/09/19 06:52:14;;;;;;;;;;;;;;;9.82;100.00;100610.31;5087378;28;19920;-86
2022/09/19 06:54:42;;;;;;;;;;;;;;;9.92;100.00;100609.47;5053966;28;20385;-80
2022/09/19 06:57:11;;;;;;;;;;;;;;;9.98;100.00;100619.22;5055617;28;19927;-86
2022/09/19 06:59:40;;;;;;;;;;;;;;;10.03;100.00;100616.50;5042209;28;19928;-83
2022/09/19 07:02:08;;;;;;;;;;;;;;;10.09;100.00;100617.28;5057425;28;19925;-82
2022/09/19 07:04:36;;;;;;;;;;;;;;;10.08;100.00;100623.00;5070747;28;20773;-83
2022/09/19 07:07:16;;;;;;;;;;;;;;;10.19;100.00;100625.41;5039206;28;19928;-83
2022/09/19 07:09:53;;;;;;;;;;;;;;;10.27;100.00;100634.88;5070093;28;19928;-84
2022/09/19 07:12:28;;;;;;;;;;;;;;;10.21;100.00;100636.00;5052668;28;19935;-83
2022/09/19 07:15:05;;;;;;;;;;;;;;;10.25;100.00;100639.81;5061016;28;20570;-80
2022/09/19 07:17:38;;;;;;;;;;;;;;;10.34;100.00;100643.59;5047421;28;19928;-82
2022/09/19 07:20:11;;;;;;;;;;;;;;;10.27;100.00;100636.81;5067385;28;19928;-87
2022/09/19 07:23:11;;;;;;;;;;;;;;;10.29;100.00;100642.75;5064006;28;19947;-79
2022/09/19 07:25:57;;;;;;;;;;;;;;;10.41;100.00;100642.47;5037169;28;20280;-80
2022/09/19 07:28:27;;;;;;;;;;;;;;;10.39;100.00;100645.47;5068911;28;19929;-81
2022/09/19 07:31:00;;;;;;;;;;;;;;;10.48;100.00;100649.25;5032419;28;19928;-80
2022/09/19 07:33:38;;;;;;;;;;;;;;;10.54;100.00;100650.84;5061600;28;19936;-82
2022/09/19 07:36:11;;;;;;;;;;;;;;;10.59;100.00;100654.63;5055966;28;19927;-80
2022/09/19 07:38:46;;;;;;;;;;;;;;;10.52;100.00;100658.50;5035880;28;19943;-80
2022/09/19 07:41:30;;;;;;;;;;;;;;;10.46;100.00;100662.31;5035232;28;20011;-83
2022/09/19 07:44:36;;;;;;;;;;;;;;;10.52;100.00;100660.38;5045570;28;19925;-81
2022/09/19 07:47:30;;;;;;;;;;;;;;;10.54;100.00;100660.91;5049778;28;20477;-81
2022/09/19 07:50:21;;;;;;;;;;;;;;;10.48;100.00;100662.03;5058239;28;19920;-81
2022/09/19 07:53:06;;;;;;;;;;;;;;;10.48;100.00;100670.19;5053650;28;20447;-80
2022/09/19 07:55:41;;;;;;;;;;;;;;;10.45;100.00;100665.31;5069101;28;20364;-80
2022/09/19 07:58:14;;;;;;;;;;;;;;;10.55;100.00;100668.00;5029989;28;19936;-83
2022/09/19 08:00:59;;;;;;;5.05;4.28;;;;;;;10.67;100.00;100667.66;5066889;28;19939;-82
2022/09/19 08:03:58;;;;;;;4.78;4.35;;;;;;;10.74;100.00;100673.59;5045603;28;20060;-81
2022/09/19 08:06:34;;;;;;;5.18;4.68;;;;;;;10.77;100.00;100661.34;5023450;28;20052;-82
2022/09/19 08:09:10;;;;;;;5.55;4.30;;;;;;;10.91;100.00;100673.25;5041790;28;20040;-80
2022/09/19 08:11:52;;;;;;;7.93;4.88;;;;;;;10.94;100.00;100667.22;5053667;28;20324;-80
2022/09/19 08:14:29;;;;;;;4.20;3.90;;;;;;;11.08;100.00;100678.28;5016680;28;20053;-81
2022/09/19 08:17:05;;;;;;;7.15;4.88;;;;;;;11.27;100.00;100683.03;5030156;28;20052;-81
2022/09/19 08:19:38;;;;;;;5.75;4.90;;;;;;;11.35;100.00;100682.44;5034269;28;20343;-82
2022/09/19 08:22:14;;;;;;;6.30;5.65;;;;;;;11.46;100.00;100673.09;5054692;28;20056;-84
2022/09/19 08:24:54;;;;;;;7.45;5.13;;;;;;;11.65;100.00;100686.81;5018740;28;20052;-81
2022/09/19 08:27:28;;;;;;;7.32;4.60;;;;;;;11.91;100.00;100692.03;5022043;28;20056;-82
2022/09/19 08:30:01;;;;;;;4.18;3.88;;;;;;;12.20;100.00;100691.19;5022976;28;20566;-80
2022/09/19 08:32:38;;;;;;;7.40;4.88;;;;;;;12.25;100.00;100696.59;5025258;28;20052;-81
2022/09/19 08:35:07;;;;;;;4.80;4.20;;;;;;;12.28;100.00;100697.91;5018124;28;20056;-82
2022/09/19 08:37:40;;;;;;;4.75;3.50;;;;;;;12.18;100.00;100701.56;5026204;28;20055;-81
2022/09/19 08:40:19;;;;;;;3.83;2.95;;;;;;;12.42;100.00;100709.78;5049285;28;20037;-82
2022/09/19 08:43:05;;;;;;;5.97;3.30;;;;;;;12.58;100.00;100711.22;5021388;28;20502;-83
2022/09/19 08:46:03;;;;;;;3.05;2.50;;;;;;;12.72;100.00;100708.56;5036086;28;20433;-80
2022/09/19 08:48:49;;;;;;;3.03;2.47;;;;;;;12.80;100.00;100712.56;5029818;28;20059;-82
2022/09/19 08:51:28;;;;;;;5.13;2.45;;;;;;;12.85;100.00;100709.75;5025986;28;20056;-78
2022/09/19 08:54:11;;;;;;;5.20;2.20;;;;;;;12.99;100.00;100706.28;5022872;28;20048;-80
2022/09/19 08:56:40;;;;;;;3.35;2.58;;;;;;;13.09;100.00;100708.88;5016839;28;20060;-80
2022/09/19 08:59:13;;;;;;;1.67;1.58;;;;;;;13.11;100.00;100712.13;5031429;28;20869;-80
2022/09/19 09:01:55;;;;;;;2.50;1.75;;;;;;;13.20;100.00;100715.00;5029634;28;20540;-80
2022/09/19 09:04:42;;;;;;;4.38;2.08;;;;;;;13.24;100.00;100719.59;5021053;28;20052;-81
2022/09/19 09:07:28;;;;;;;5.95;2.15;;;;;;;13.28;100.00;100714.31;5016116;28;20075;-80
2022/09/19 09:10:40;;;;;;;3.65;1.45;;;;;;;13.44;100.00;100721.19;5041521;28;20493;-81
2022/09/19 09:13:35;;;;;;;4.13;1.45;;;;;;;13.57;100.00;100727.03;5037421;28;20464;-80
2022/09/19 09:16:19;;;;;;;2.72;1.42;;;;;;;13.72;100.00;100725.97;5016384;28;20056;-79
2022/09/19 09:19:17;;;;;;;2.42;1.10;;;;;;;13.65;100.00;100736.47;5024837;28;20052;-82
2022/09/19 09:21:59;;;;;;;3.55;1.30;;;;;;;13.72;100.00;100734.97;5049418;28;20067;-80
2022/09/19 09:24:50;;;;;;;1.63;0.93;;;;;;;13.85;100.00;100736.13;5032340;28;20061;-80
2022/09/19 09:27:37;;;;;;;3.42;1.20;;;;;;;13.99;100.00;100738.88;5035717;28;20825;-79
2022/09/19 09:30:18;;;;;;;4.63;1.20;;;;;;;14.01;100.00;100728.44;5039850;28;21279;-80
2022/09/19 09:33:11;;;;;;;4.07;0.82;;;;;;;13.92;100.00;100750.22;5014321;28;20920;-86
2022/09/19 09:35:47;;;;;;;5.20;1.00;;;;;;;13.89;100.00;100733.59;5022115;28;21067;-83
2022/09/19 09:38:30;;;;;;;7.22;2.75;;;;;;;13.93;100.00;100742.81;5022373;28;20434;-81
2022/09/19 09:44:15;;;;;;;3.38;0.80;;;;;;;14.00;100.00;100728.75;5021805;28;20843;-81
2022/09/19 09:46:58;;;;;;;2.53;0.80;;;;;;;14.12;100.00;100734.53;5040134;28;20419;-80
2022/09/19 09:49:36;;;;;;;3.15;0.77;;;;;;;14.18;100.00;100738.00;5024029;28;20431;-81
2022/09/19 09:52:26;;;;;;;3.50;0.70;;;;;;;14.11;100.00;100739.22;5025739;28;20512;-82
2022/09/19 09:58:14;;;;;;;4.43;0.85;;;;;;;14.35;100.00;100735.47;5020418;28;20454;-81
2022/09/19 10:03:49;;;;;;;4.25;0.70;;;;;;;14.28;100.00;100737.81;5018212;28;20427;-83
2022/09/19 10:06:30;;;;;;;5.57;0.80;;;;;;;14.31;100.00;100742.66;5049685;28;20415;-82
2022/09/19 10:09:13;;;;;;;3.50;0.68;;;;;;;14.56;100.00;100738.59;5038439;28;20419;-82
2022/09/19 10:11:57;;;;;;;6.57;0.82;;;;;;;14.45;100.00;100734.47;5022214;28;20428;-80
2022/09/19 10:14:30;;;;;;;4.82;1.00;;;;;;;14.52;100.00;100747.75;5036158;28;20423;-81
2022/09/19 10:17:25;;;;;;;1.70;0.57;;;;;;;14.48;100.00;100746.72;5056406;28;20826;-80
2022/09/19 10:19:58;;;;;;;4.13;0.80;;;;;;;14.36;100.00;100736.28;5037635;28;20419;-80
2022/09/19 10:22:31;;;;;;;2.20;0.60;;;;;;;14.29;100.00;100728.47;5044953;28;20428;-81
2022/09/19 10:25:10;;;;;;;5.00;0.75;;;;;;;14.40;100.00;100740.84;5038755;28;20420;-80
2022/09/19 10:27:49;;;;;;;2.55;0.60;;;;;;;14.21;100.00;100742.84;5060143;28;20783;-84
2022/09/19 10:30:41;;;;;;;3.80;0.70;;;;;;;14.07;100.00;100751.88;5051159;28;20442;-87
2022/09/19 10:33:28;;;;;;;3.28;0.65;;;;;;;13.97;100.00;100751.25;5033806;28;20519;-83
2022/09/19 10:36:07;;;;;;;4.78;0.85;;;;;;;14.07;100.00;100742.84;5033372;28;20447;-83
2022/09/19 10:38:49;;;;;;;3.83;0.60;;;;;;;14.05;100.00;100751.34;5047919;28;20432;-81
2022/09/19 10:41:22;;;;;;;4.10;0.63;;;;;;;14.19;100.00;100745.88;5052726;28;21066;-82
2022/09/19 10:43:59;;;;;;;4.45;0.88;;;;;;;14.31;100.00;100745.41;5022559;28;20445;-82
2022/09/19 10:46:36;;;;;;;2.42;0.73;;;;;;;14.47;100.00;100740.44;5028703;28;20426;-82
2022/09/19 10:49:29;;;;;;;5.80;2.15;;;;;;;14.63;100.00;100740.97;5049135;28;20947;-82
2022/09/19 10:52:04;;;;;;;5.97;1.27;;;;;;;14.67;100.00;100733.75;5030140;28;20424;-83
2022/09/19 10:54:35;;;;;;;3.60;0.63;;;;;;;14.65;100.00;100748.88;5037265;28;20423;-82
2022/09/19 10:57:05;;;;;;;1.98;0.40;;;;;;;14.68;100.00;100746.34;5030070;28;20464;-83
2022/09/19 10:59:42;;;;;;;1.57;0.43;;;;;;;14.74;100.00;100745.09;5029142;28;20431;-81
2022/09/19 11:02:26;;;;;;;2.33;0.50;;;;;;;14.80;100.00;100745.81;5031923;28;20420;-80
2022/09/19 11:04:59;;;;;;;3.20;0.60;;;;;;;15.01;100.00;100737.16;5074697;28;21135;-82
2022/09/19 11:07:48;;;;;;;0.93;0.40;;;;;;;14.91;100.00;100738.97;5059779;28;20438;-81
2022/09/19 11:10:37;;;;;;;2.43;0.60;;;;;;;14.53;100.00;100730.19;5063583;28;21155;-81
2022/09/19 11:13:20;;;;;;;1.90;0.50;;;;;;;14.82;100.00;100734.53;5031392;28;20446;-82
2022/09/19 11:16:17;;;;;;;4.47;0.52;;;;;;;14.86;100.00;100730.06;5045580;28;20434;-84
2022/09/19 11:19:12;;;;;;;2.77;0.57;;;;;;;14.90;100.00;100731.06;5026204;28;20428;-83
2022/09/19 11:21:52;;;;;;;4.68;0.60;;;;;;;15.05;100.00;100722.53;5034424;28;20419;-83
2022/09/19 11:24:41;;;;;;;3.50;0.65;;;;;;;15.18;100.00;100709.91;5039191;28;20428;-83
2022/09/19 11:27:42;;;;;;;1.58;0.50;;;;;;;15.28;100.00;100711.56;5017842;28;20422;-82
2022/09/19 11:30:19;;;;;;;2.08;0.60;;;;;;;15.38;100.00;100722.28;5021367;28;20427;-83
2022/09/19 11:33:16;;;;;;;2.70;0.67;;;;;;;15.54;100.00;100711.75;5022112;28;20418;-82
2022/09/19 11:36:27;;;;;;;3.50;0.88;;;;;;;15.66;100.00;100713.94;5041939;28;20438;-84
2022/09/19 11:39:03;;;;;;;2.85;0.60;;;;;;;15.50;100.00;100712.72;5043642;28;20431;-82
2022/09/19 11:41:54;;;;;;;0.90;0.40;;;;;;;15.54;100.00;100711.75;5051852;28;20431;-81
2022/09/19 11:44:43;;;;;;;3.63;0.57;;;;;;;15.60;100.00;100710.50;4993600;28;20431;-81
2022/09/19 11:47:32;;;;;;;3.17;0.60;;;;;;;15.46;100.00;100715.25;5061120;28;20587;-81
2022/09/19 11:50:29;;;;;;;3.00;0.45;;;;;;;15.29;100.00;100715.94;5018060;28;20416;-83
2022/09/19 11:53:29;;;;;;;1.73;0.40;;;;;;;15.43;100.00;100702.97;5020926;28;20404;-85
2022/09/19 11:56:35;;;;;;;0.73;0.40;;;;;;;15.19;100.00;100707.94;5029458;28;20442;-81
2022/09/19 11:59:14;;;;;;;1.85;0.40;;;;;;;15.01;100.00;100707.81;5050724;28;20683;-83
2022/09/19 12:02:00;;;;;;;1.70;0.40;;;;;;;14.81;100.00;100711.03;5034227;28;21104;-81
2022/09/19 12:04:42;;;;;;;2.63;0.40;;;;;;;14.66;100.00;100703.94;5051562;28;20399;-83
2022/09/19 12:07:31;;;;;;;2.83;0.57;;;;;;;14.48;100.00;100708.41;5046421;28;20427;-82
2022/09/19 12:10:13;;;;;;;1.58;0.57;;;;;;;14.67;100.00;100725.53;5044668;28;20412;-81
2022/09/19 12:12:53;;;;;;;2.13;0.38;;;;;;;14.75;100.00;100724.03;5037551;28;20779;-83
2022/09/19 12:15:35;;;;;;;4.28;0.80;;;;;;;14.90;100.00;100718.19;5030999;28;20431;-82
2022/09/19 12:18:13;;;;;;;2.13;0.60;;;;;;;15.03;100.00;100713.78;5032686;28;20428;-85
2022/09/19 12:20:49;;;;;;;1.10;0.40;;;;;;;15.26;100.00;100708.31;5044014;28;20427;-81
2022/09/19 12:26:27;;;;;;;2.58;0.47;;;;;;;15.24;100.00;100708.63;5057647;28;20446;-80
2022/09/19 12:29:14;;;;;;;1.88;0.40;;;;;;;15.05;100.00;100703.34;5022934;28;20439;-81
2022/09/19 12:31:47;;;;;;;1.23;0.30;;;;;;;15.15;100.00;100721.47;5028333;28;20437;-82
2022/09/19 12:34:32;;;;;;;1.50;0.35;;;;;;;15.39;100.00;100715.69;5020461;28;20431;-82
2022/09/19 12:37:15;;;;;;;1.40;0.40;;;;;;;15.50;100.00;100713.50;5045244;28;20629;-81
2022/09/19 12:39:55;;;;;;;0.87;0.30;;;;;;;15.55;100.00;100716.13;5021491;28;21806;-83
2022/09/19 12:42:31;;;;;;;1.20;0.30;;;;;;;15.54;100.00;100713.72;5022331;28;20436;-81
2022/09/19 12:45:10;;;;;;;0.90;0.30;;;;;;;15.64;100.00;100719.72;5008528;28;20819;-81
2022/09/19 12:47:57;;;;;;;2.30;0.50;;;;;;;15.52;100.00;100715.94;5017538;28;20765;-81
2022/09/19 12:51:08;;;;;;;1.47;0.33;;;;;;;15.37;100.00;100719.84;5044058;28;20515;-82
2022/09/19 12:53:47;;;;;;;2.17;0.47;;;;;;;15.26;100.00;100711.06;5029278;28;20427;-83
2022/09/19 12:56:29;;;;;;;0.57;0.32;;;;;;;15.31;100.00;100716.44;5043352;28;20918;-82
2022/09/19 12:59:11;;;;;;;0.90;0.30;;;;;;;15.27;100.00;100707.22;5036790;28;20427;-83
2022/09/19 13:01:45;;;;;;;2.08;0.60;;;;;;;15.40;100.00;100703.59;5035859;28;20411;-83
2022/09/19 13:04:28;;;;;;;1.45;0.40;;;;;;;15.54;100.00;100694.50;5014651;28;20415;-83
2022/09/19 13:07:01;;;;;;;1.20;0.40;;;;;;;15.56;100.00;100704.03;5029052;28;20415;-83
2022/09/19 13:09:43;;;;;;;2.10;0.30;;;;;;;15.37;100.00;100700.66;5039823;28;20423;-82
2022/09/19 13:12:24;;;;;;;0.45;0.30;;;;;;;15.35;100.00;100700.97;5040457;28;20432;-81
2022/09/19 13:15:02;;;;;;;2.20;0.40;;;;;;;15.54;100.00;100700.00;5047832;28;20434;-83